Latest Weather Observations for Adele Island

IDW60801

Issued at 9:23 am WST Tuesday 22 September 2020 (issued every 10 minutes, with the page automatically refreshed every 10 minutes)

About weather observations | Map of weather stations | Latest weather observations for WA | Other Formats
Station Details ID: 200735 Name: ADELE ISLAND Lat: -15.51 Lon: 123.16 Height: 4.6 m
Data from the previous 72 hours. | See also: Recent months at Adele Island
Date/Time
WST
Temp
°C
App
Temp
°C
Dew
Point
°C
Rel
Hum
%
Delta-T
°C
Wind Press
QNH
hPa
Press
MSL
hPa
Rain since
9am
mm
Dir  Spd
km/h
Gust
km/h
Spd
kts
Gust
kts
22/09:17am 29.1 - - - - SSE 20 22 11 12 1012.3 1012.2 -
22/09:00am 29.4 - - - - SSE 19 24 10 13 1012.3 1012.2 -
22/08:30am 28.8 - - - - SSE 20 26 11 14 1012.4 1012.3 -
22/08:17am 28.3 - - - - SSE 20 - 11 - - 1012.3 -
22/08:00am 28.2 - - - - SSE 20 26 11 14 1012.2 1012.1 -
22/07:30am 28.1 - - - - SSE 19 26 10 14 1011.9 1011.8 -
22/07:17am 28.0 - - - - SSE 19 - 10 - - 1011.7 -
22/07:00am 27.4 - - - - SSE 17 20 9 11 1011.8 1011.7 -
22/06:30am 26.5 - - - - SE 15 19 8 10 1011.4 1011.3 -
22/06:17am 26.3 - - - - SSE 15 - 8 - - 1011.1 -
22/06:00am 25.8 - - - - SE 15 19 8 10 1011.2 1011.1 -
22/05:30am 25.8 - - - - SE 17 19 9 10 1010.9 1010.8 -
22/05:17am 25.9 - - - - SE 17 - 9 - - 1010.7 -
22/05:00am 25.8 - - - - SE 17 19 9 10 1010.5 1010.4 -
22/04:30am 26.0 - - - - SSE 17 17 9 9 1010.3 1010.2 -
22/04:17am 26.2 - - - - S 15 - 8 - - 1010.1 -
22/04:00am 26.4 - - - - S 15 19 8 10 1010.1 1010.0 -
22/03:30am 26.3 - - - - S 15 19 8 10 1010.1 1010.0 -
22/03:17am 26.3 - - - - S 17 - 9 - - 1010.0 -
22/03:00am 26.4 - - - - S 17 20 9 11 1010.1 1010.0 -
22/02:30am 26.5 - - - - SSW 17 20 9 11 1010.2 1010.1 -
22/02:17am 26.5 - - - - S 17 - 9 - - 1010.1 -
22/02:00am 26.7 - - - - SSW 19 22 10 12 1010.2 1010.1 -
22/01:30am 26.9 - - - - SSW 17 20 9 11 1010.1 1010.0 -
22/01:17am 26.9 - - - - SSW 17 - 9 - - 1010.0 -
22/01:00am 27.1 - - - - SSW 17 22 9 12 1010.2 1010.1 -
22/12:30am 27.3 - - - - SSW 13 19 7 10 1010.4 1010.3 -
22/12:17am 27.1 - - - - SSW 15 - 8 - - 1010.4 -
22/12:00am 26.8 - - - - SSW 15 19 8 10 1010.5 1010.4 -
 
Date/Time
WST
Temp
°C
App
Temp
°C
Dew
Point
°C
Rel
Hum
%
Delta-T
°C
Wind Press
QNH
hPa
Press
MSL
hPa
Rain since
9am
mm
Dir  Spd
km/h
Gust
km/h
Spd
kts
Gust
kts
21/11:30pm 27.1 - - - - SSW 15 17 8 9 1010.6 1010.5 -
21/11:17pm 27.2 - - - - SSW 15 - 8 - - 1010.4 -
21/11:00pm 27.0 - - - - SW 17 20 9 11 1010.5 1010.4 -
21/10:30pm 26.9 - - - - SSW 19 22 10 12 1010.6 1010.5 -
21/10:17pm 26.8 - - - - SSW 20 - 11 - - 1010.5 -
21/10:00pm 26.6 - - - - SSW 22 26 12 14 1010.6 1010.5 -
21/09:30pm 26.5 - - - - SSW 24 28 13 15 1010.5 1010.4 -
21/09:17pm 26.5 - - - - SW 22 - 12 - - 1010.4 -
21/09:00pm 26.5 - - - - SW 20 26 11 14 1010.6 1010.5 -
21/08:30pm 26.3 - - - - SW 20 24 11 13 1010.6 1010.5 -
21/08:17pm 26.5 - - - - SW 20 - 11 - - 1010.5 -
21/08:00pm 26.7 - - - - SW 20 24 11 13 1010.5 1010.4 -
21/07:30pm 26.6 - - - - SW 20 24 11 13 1010.5 1010.4 -
21/07:17pm 26.7 - - - - WSW 20 - 11 - - 1010.4 -
21/07:00pm 26.6 - - - - WSW 19 24 10 13 1010.4 1010.3 -
21/06:30pm 26.6 - - - - WSW 17 20 9 11 1010.1 1010.0 -
21/06:17pm 26.7 - - - - WSW 17 - 9 - - 1009.9 -
21/06:00pm 26.8 - - - - WSW 15 19 8 10 1009.8 1009.7 -
21/05:30pm 27.2 - - - - WSW 15 17 8 9 1009.5 1009.4 -
21/05:17pm 27.3 - - - - WSW 13 - 7 - - 1009.3 -
21/05:00pm 27.6 - - - - SW 15 19 8 10 1009.3 1009.2 -
21/04:30pm 27.7 - - - - SW 17 19 9 10 1009.2 1009.1 -
21/04:17pm 27.9 - - - - SW 17 - 9 - - 1009.1 -
21/04:00pm 27.7 - - - - SW 17 20 9 11 1009.3 1009.2 -
21/03:30pm 27.6 - - - - SW 19 24 10 13 1009.4 1009.3 -
21/03:17pm 28.1 - - - - SSW 19 - 10 - - 1009.2 -
21/03:00pm 28.2 - - - - SSW 19 22 10 12 1009.5 1009.4 -
21/02:30pm 27.7 - - - - SSW 20 24 11 13 1009.7 1009.6 -
21/02:17pm 28.1 - - - - SSW 20 - 11 - - 1009.7 -
21/02:00pm 28.1 - - - - SSW 20 24 11 13 1009.8 1009.7 -
21/01:30pm 28.0 - - - - SW 20 24 11 13 1010.1 1010.0 -
21/01:17pm 28.2 - - - - SW 20 - 11 - - 1010.2 -
21/01:00pm 29.0 - - - - SSW 22 28 12 15 1010.4 1010.3 -
21/12:30pm 28.5 - - - - S 26 33 14 18 1010.9 1010.8 -
21/12:17pm 29.3 - - - - S 26 - 14 - - 1011.0 -
21/12:00pm 28.9 - - - - S 26 32 14 17 1011.3 1011.2 -
21/11:30am 28.6 - - - - S 26 33 14 18 1011.8 1011.7 -
21/11:17am 28.2 - - - - S 26 - 14 - - 1011.9 -
21/11:00am 29.2 - - - - S 28 37 15 20 1012.2 1012.1 -
21/10:30am 29.0 - - - - SSE 24 30 13 16 1012.7 1012.6 -
21/10:17am 28.7 - - - - SSE 22 - 12 - - 1012.7 -
21/10:00am 28.6 - - - - SSE 24 30 13 16 1012.9 1012.8 -
21/09:30am 29.2 - - - - SSE 20 26 11 14 1013.1 1013.0 -
21/09:17am 29.3 - - - - SSE 20 - 11 - - 1013.1 -
21/09:00am 28.5 - - - - SSE 20 28 11 15 1013.4 1013.3 -
21/08:30am 27.7 - - - - S 20 24 11 13 1013.4 1013.3 -
21/08:17am 27.7 - - - - SSE 19 - 10 - - 1013.4 -
21/08:00am 27.6 - - - - S 20 24 11 13 1013.6 1013.5 -
21/07:30am 27.3 - - - - S 17 20 9 11 1013.5 1013.4 -
21/07:17am 27.1 - - - - SSW 17 - 9 - - 1013.2 -
21/07:00am 26.9 - - - - SSW 17 20 9 11 1013.1 1013.0 -
21/06:30am 26.5 - - - - WSW 11 15 6 8 1012.7 1012.6 -
21/06:17am 26.3 - - - - WSW 11 - 6 - - 1012.4 -
21/06:00am 26.1 - - - - WSW 13 15 7 8 1012.3 1012.2 -
21/05:30am 26.3 - - - - WSW 15 17 8 9 1011.9 1011.8 -
21/05:17am 26.2 - - - - WSW 15 - 8 - - 1011.6 -
21/05:00am 26.3 - - - - WSW 15 17 8 9 1011.5 1011.4 -
21/04:30am 26.3 - - - - SW 17 19 9 10 1011.0 1010.9 -
21/04:17am 26.2 - - - - SW 17 - 9 - - 1010.7 -
21/04:00am 26.4 - - - - SW 15 19 8 10 1010.7 1010.6 -
21/03:30am 26.4 - - - - SW 17 20 9 11 1010.5 1010.4 -
21/03:17am 26.3 - - - - SW 17 - 9 - - 1010.3 -
21/03:00am 26.5 - - - - SW 17 20 9 11 1010.3 1010.2 -
21/02:30am 26.4 - - - - SW 19 22 10 12 1010.2 1010.1 -
21/02:17am 26.5 - - - - SW 20 - 11 - - 1010.1 -
21/02:00am 26.5 - - - - SW 20 24 11 13 1010.3 1010.2 -
21/01:30am 26.7 - - - - SW 20 24 11 13 1010.5 1010.4 -
21/01:17am 26.6 - - - - SW 19 - 10 - - 1010.5 -
21/01:00am 26.7 - - - - WSW 20 26 11 14 1010.7 1010.6 -
21/12:30am 26.6 - - - - SW 22 28 12 15 1010.9 1010.8 -
21/12:17am 26.7 - - - - WSW 20 - 11 - - 1011.0 -
21/12:00am 26.6 - - - - SW 22 28 12 15 1011.3 1011.2 -
 
Date/Time
WST
Temp
°C
App
Temp
°C
Dew
Point
°C
Rel
Hum
%
Delta-T
°C
Wind Press
QNH
hPa
Press
MSL
hPa
Rain since
9am
mm
Dir  Spd
km/h
Gust
km/h
Spd
kts
Gust
kts
20/11:30pm 26.7 - - - - WSW 24 28 13 15 1011.5 1011.4 -
20/11:17pm 26.6 - - - - SW 24 - 13 - - 1011.5 -
20/11:00pm 26.5 - - - - SW 24 30 13 16 1011.7 1011.6 -
20/10:30pm 26.4 - - - - SW 24 30 13 16 1011.8 1011.7 -
20/10:17pm 26.4 - - - - WSW 24 - 13 - - 1011.7 -
20/10:00pm 26.2 - - - - WSW 22 30 12 16 1011.9 1011.8 -
20/09:30pm 26.2 - - - - SW 22 28 12 15 1012.1 1012.0 -
20/09:17pm 26.2 - - - - SW 22 - 12 - - 1012.0 -
20/09:00pm 26.2 - - - - SW 20 26 11 14 1012.2 1012.1 -
20/08:30pm 26.2 - - - - WSW 20 26 11 14 1012.1 1012.0 -
20/08:17pm 26.3 - - - - SW 22 - 12 - - 1011.9 -
20/08:00pm 26.3 - - - - WSW 24 30 13 16 1012.0 1011.9 -
20/07:30pm 26.4 - - - - WSW 22 28 12 15 1011.7 1011.6 -
20/07:17pm 26.5 - - - - SW 22 - 12 - - 1011.5 -
20/07:00pm 26.6 - - - - WSW 22 28 12 15 1011.5 1011.4 -
20/06:30pm 26.4 - - - - WSW 20 28 11 15 1011.2 1011.1 -
20/06:17pm 26.6 - - - - WSW 22 - 12 - - 1011.0 -
20/06:00pm 26.7 - - - - WSW 20 26 11 14 1011.0 1010.9 -
20/05:30pm 26.9 - - - - SW 19 24 10 13 1010.8 1010.7 -
20/05:17pm 27.1 - - - - SW 20 - 11 - - 1010.6 -
20/05:00pm 27.2 - - - - SW 20 24 11 13 1010.6 1010.5 -
20/04:30pm 27.8 - - - - SW 19 24 10 13 1010.5 1010.4 -
20/04:17pm 27.7 - - - - SW 19 - 10 - - 1010.3 -
20/04:00pm 28.0 - - - - WSW 19 22 10 12 1010.5 1010.4 -
20/03:30pm 28.3 - - - - W 17 20 9 11 1010.4 1010.3 -
20/03:17pm 27.9 - - - - W 15 - 8 - - 1010.2 -
20/03:00pm 27.9 - - - - WNW 15 19 8 10 1010.4 1010.3 -
20/02:30pm 28.2 - - - - W 13 17 7 9 1010.5 1010.4 -
20/02:17pm 28.2 - - - - W 13 - 7 - - 1010.4 -
20/02:00pm 27.4 - - - - WSW 13 17 7 9 1010.7 1010.6 -
20/01:30pm 27.8 - - - - WSW 13 17 7 9 1011.1 1011.0 -
20/01:17pm 27.8 - - - - SW 11 - 6 - - 1011.2 -
20/01:00pm 27.1 - - - - SW 9 15 5 8 1011.6 1011.5 -
20/12:30pm 27.5 - - - - WSW 11 15 6 8 1012.0 1011.9 -
20/12:17pm 27.2 - - - - WSW 11 - 6 - - 1012.0 -
20/12:00pm 27.4 - - - - NNW 9 15 5 8 1012.4 1012.3 -
20/11:30am 27.3 - - - - NW 11 17 6 9 1012.7 1012.6 -
20/11:17am 28.0 - - - - W 13 - 7 - - 1012.7 -
20/11:00am 27.5 - - - - SW 15 20 8 11 1013.0 1012.9 -
20/10:30am 27.7 - - - - SSW 13 17 7 9 1013.4 1013.3 -
20/10:17am 28.6 - - - - S 13 - 7 - - 1013.4 -
20/10:00am 28.1 - - - - SSW 13 17 7 9 1013.6 1013.5 -
20/09:30am 28.3 - - - - SW 13 19 7 10 1014.0 1013.9 -
20/09:17am 27.3 - - - - SSW 2 - 1 - - 1013.9 -
20/09:00am 28.4 - - - - SE 2 6 1 3 1014.1 1014.0 -
20/08:30am 27.2 - - - - SE 2 4 1 2 1014.0 1013.9 -
20/08:17am 26.9 - - - - SSE 11 - 6 - - 1013.8 -
20/08:00am 27.3 - - - - SSE 13 19 7 10 1013.7 1013.6 -
20/07:30am 26.6 - - - - SSE 15 19 8 10 1013.4 1013.3 -
20/07:17am 26.5 - - - - S 13 - 7 - - 1013.2 -
20/07:00am 26.5 - - - - S 13 17 7 9 1013.3 1013.2 -
20/06:30am 25.9 - - - - S 11 13 6 7 1012.9 1012.8 -
20/06:17am 25.5 - - - - S 13 - 7 - - 1012.6 -
20/06:00am 25.1 - - - - S 13 15 7 8 1012.6 1012.5 -
20/05:30am 25.2 - - - - S 15 17 8 9 1012.2 1012.1 -
20/05:17am 25.2 - - - - S 13 - 7 - - 1012.0 -
20/05:00am 25.2 - - - - SSE 15 17 8 9 1011.8 1011.7 -
20/04:30am 25.4 - - - - S 17 19 9 10 1011.3 1011.2 -
20/04:17am 25.5 - - - - S 15 - 8 - - 1011.1 -
20/04:00am 25.7 - - - - S 19 20 10 11 1011.1 1011.0 -
20/03:30am 25.5 - - - - S 17 20 9 11 1011.0 1010.9 -
20/03:17am 25.7 - - - - SSW 20 - 11 - - 1010.9 -
20/03:00am 25.8 - - - - SSW 20 24 11 13 1011.0 1010.9 -
20/02:30am 25.7 - - - - SSW 20 24 11 13 1011.1 1011.0 -
20/02:17am 25.7 - - - - SSW 19 - 10 - - 1011.0 -
20/02:00am 25.7 - - - - SSW 19 24 10 13 1011.1 1011.0 -
20/01:30am 25.9 - - - - SSW 20 26 11 14 1011.2 1011.1 -
20/01:17am 25.9 - - - - SSW 20 - 11 - - 1011.3 -
20/01:00am 25.9 - - - - SSW 20 26 11 14 1011.5 1011.4 -
20/12:30am 26.0 - - - - SSW 24 30 13 16 1011.7 1011.6 -
20/12:17am 26.2 - - - - SSW 24 - 13 - - 1011.8 -
20/12:00am 26.0 - - - - SSW 22 26 12 14 1012.0 1011.9 -
 
Date/Time
WST
Temp
°C
App
Temp
°C
Dew
Point
°C
Rel
Hum
%
Delta-T
°C
Wind Press
QNH
hPa
Press
MSL
hPa
Rain since
9am
mm
Dir  Spd
km/h
Gust
km/h
Spd
kts
Gust
kts
19/11:30pm 26.1 - - - - SW 22 28 12 15 1012.3 1012.2 -
19/11:17pm 26.2 - - - - SW 22 - 12 - - 1012.3 -
19/11:00pm 26.2 - - - - SW 22 28 12 15 1012.5 1012.4 -
19/10:30pm 26.3 - - - - SW 22 26 12 14 1012.8 1012.7 -
19/10:17pm 26.0 - - - - SW 20 - 11 - - 1012.8 -
19/10:00pm 26.1 - - - - SW 19 24 10 13 1013.0 1012.9 -
19/09:30pm 26.0 - - - - SW 17 20 9 11 1013.1 1013.0 -
19/09:17pm 25.8 - - - - WSW 17 - 9 - - 1013.0 -
19/09:00pm 25.9 - - - - SW 15 19 8 10 1013.0 1012.9 -
19/08:30pm 25.9 - - - - SW 15 19 8 10 1012.8 1012.7 -
19/08:17pm 25.9 - - - - SW 15 - 8 - - 1012.7 -
19/08:00pm 26.0 - - - - WSW 15 17 8 9 1012.7 1012.6 -
19/07:30pm 26.1 - - - - WSW 13 15 7 8 1012.5 1012.4 -
19/07:17pm 26.1 - - - - WSW 15 - 8 - - 1012.2 -
19/07:00pm 26.2 - - - - SW 15 17 8 9 1012.2 1012.1 -
19/06:30pm 26.3 - - - - SW 15 19 8 10 1011.9 1011.8 -
19/06:17pm 26.2 - - - - SW 13 - 7 - - 1011.7 -
19/06:00pm 26.3 - - - - SW 15 19 8 10 1011.6 1011.5 -
19/05:30pm 26.4 - - - - SW 15 17 8 9 1011.3 1011.2 -
19/05:17pm 26.6 - - - - SW 15 - 8 - - 1011.1 -
19/05:00pm 26.8 - - - - SSW 17 20 9 11 1011.1 1011.0 -
19/04:30pm 27.0 - - - - SSW 17 20 9 11 1010.9 1010.8 -
19/04:17pm 27.2 - - - - SSW 17 - 9 - - 1010.8 -
19/04:00pm 27.4 - - - - SSW 17 20 9 11 1011.0 1010.9 -
19/03:30pm 27.2 - - - - SW 17 22 9 12 1011.1 1011.0 -
19/03:17pm 27.5 - - - - SSW 17 - 9 - - 1011.1 -
19/03:00pm 26.9 - - - - SSW 19 22 10 12 1011.2 1011.1 -
19/02:30pm 27.1 - - - - SSW 17 20 9 11 1011.6 1011.5 -
19/02:17pm 27.2 - - - - SW 15 - 8 - - 1011.5 -
19/02:00pm 27.2 - - - - SSW 17 20 9 11 1011.6 1011.5 -
19/01:30pm 28.0 - - - - SSW 15 20 8 11 1011.9 1011.8 -
19/01:17pm 27.4 - - - - SSW 15 - 8 - - 1012.0 -
19/01:00pm 27.2 - - - - WSW 13 19 7 10 1012.3 1012.2 -
19/12:30pm 26.9 - - - - SSW 17 20 9 11 1012.5 1012.4 -
19/12:17pm 27.3 - - - - SSW 15 - 8 - - 1012.6 -
19/12:00pm 27.8 - - - - SW 13 19 7 10 1012.9 1012.8 -
19/11:30am 28.0 - - - - SW 13 19 7 10 1013.2 1013.1 -
19/11:17am 28.2 - - - - E 9 - 5 - - 1013.3 -
19/11:00am 28.1 - - - - SE 11 15 6 8 1013.6 1013.5 -
19/10:30am 27.4 - - - - SSW 11 15 6 8 1014.0 1013.9 -
19/10:17am 27.2 - - - - SSW 11 - 6 - - 1014.2 -
19/10:00am 28.3 - - - - S 4 9 2 5 1014.2 1014.1 -
19/09:30am 28.7 - - - - ESE 11 15 6 8 1014.3 1014.2 -

Other formats

Comma delimited format used in spreadsheet applications
http://www.bom.gov.au/fwo/IDW60801/IDW60801.94210.axf

JavaScript Object Notation format (JSON) in row-major order
http://www.bom.gov.au/fwo/IDW60801/IDW60801.94210.json

Data quality

Most of these data are generated automatically and are frequently updated. Quality checks on data are not normally performed. It is possible for incorrect values to appear. Refer to information at About Latest Weather Observations and please check the disclaimer before using these data.